Terminal Aerodrome Forecast
Issued by NWS

Home | Current Version | Previous Version | Text Only | Print | Product List | Glossary On
Versions: 1 2 3 4 5 6 7 8 9 10 11 12 13 14 15 16 17 18 19 20 21 22 23 24 25 26 27 28 29 30 31 32
000
FTUS43 KDDC 221100
TAFGCK
TAF
KGCK 221120Z 2212/2312 17008KT P6SM SCT150
     FM222100 18018G26KT P6SM SCT080
     FM230200 18012KT P6SM VCTS BKN080CB
     FM230400 18012KT P6SM BKN250=

USA.gov is the U.S. government's official web portal to all federal, state and local government web resources and services.